createdAt,value
2023-01-13T00:01:29.889Z,15.80
2023-01-13T00:03:57.578Z,16.22
2023-01-13T00:06:29.788Z,15.87
2023-01-13T00:08:56.396Z,16.52
2023-01-13T00:11:23.513Z,16.20
2023-01-13T00:13:50.624Z,16.49
2023-01-13T00:16:18.642Z,16.08
2023-01-13T00:18:46.999Z,15.71
2023-01-13T00:21:15.916Z,16.12
2023-01-13T00:23:43.510Z,16.18
2023-01-13T00:26:17.054Z,15.68
2023-01-13T00:28:43.839Z,14.64
2023-01-13T00:31:15.576Z,13.96
2023-01-13T00:33:46.430Z,14.56
2023-01-13T00:36:14.826Z,14.61
2023-01-13T00:38:43.344Z,14.29
2023-01-13T00:41:11.596Z,14.60
2023-01-13T00:43:38.931Z,14.45
2023-01-13T00:46:06.509Z,14.06
2023-01-13T00:48:33.721Z,14.16
2023-01-13T00:51:11.907Z,14.37
2023-01-13T00:53:43.783Z,14.49
2023-01-13T00:56:18.231Z,15.54
2023-01-13T00:58:47.110Z,14.41
2023-01-13T01:01:16.575Z,15.31
2023-01-13T01:03:43.610Z,15.18
2023-01-13T01:06:15.006Z,15.02
2023-01-13T01:08:42.931Z,14.96
2023-01-13T01:11:14.225Z,15.79
2023-01-13T01:13:43.085Z,15.89
2023-01-13T01:16:11.541Z,15.64
2023-01-13T01:18:39.438Z,15.37
2023-01-13T01:21:06.663Z,15.34
2023-01-13T01:23:35.438Z,15.03
2023-01-13T01:26:15.995Z,15.35
2023-01-13T01:28:43.610Z,15.09
2023-01-13T01:31:18.033Z,14.91
2023-01-13T01:33:46.420Z,14.52
2023-01-13T01:36:15.366Z,14.65
2023-01-13T01:38:42.312Z,14.96
2023-01-13T01:41:10.434Z,14.32
2023-01-13T01:44:05.013Z,14.44
2023-01-13T01:46:33.488Z,14.84
2023-01-13T01:49:07.295Z,14.16
2023-01-13T01:51:36.827Z,14.46
2023-01-13T01:54:04.806Z,14.06
2023-01-13T01:56:33.902Z,14.14
2023-01-13T01:59:01.149Z,14.71
2023-01-13T02:01:28.425Z,14.49
2023-01-13T02:03:58.590Z,14.48
2023-01-13T02:06:25.871Z,14.12
2023-01-13T02:08:53.167Z,14.41
2023-01-13T02:11:53.985Z,13.83
2023-01-13T02:14:22.603Z,14.12
2023-01-13T02:17:08.179Z,14.19
2023-01-13T02:19:37.729Z,13.64
2023-01-13T02:22:13.393Z,13.46
2023-01-13T02:24:57.526Z,14.44
2023-01-13T02:27:43.202Z,13.34
2023-01-13T02:30:48.679Z,13.58
2023-01-13T02:33:25.598Z,13.11
2023-01-13T02:36:06.045Z,14.23
2023-01-13T02:38:39.539Z,13.98
2023-01-13T02:41:33.537Z,14.28
2023-01-13T02:44:09.395Z,14.24
2023-01-13T02:46:48.050Z,13.86
2023-01-13T02:49:19.574Z,13.82
2023-01-13T02:51:47.436Z,14.00
2023-01-13T02:54:17.637Z,14.31
2023-01-13T02:56:47.589Z,14.73
2023-01-13T02:59:14.666Z,13.79
2023-01-13T03:01:42.533Z,13.69
2023-01-13T03:04:13.201Z,14.47
2023-01-13T03:06:56.842Z,14.01
2023-01-13T03:09:29.931Z,13.59
2023-01-13T03:12:03.296Z,13.74
2023-01-13T03:14:36.259Z,13.68
2023-01-13T03:17:11.212Z,13.40
2023-01-13T03:19:42.896Z,13.93
2023-01-13T03:22:28.261Z,14.22
2023-01-13T03:25:06.038Z,13.67
2023-01-13T03:27:41.522Z,13.92
2023-01-13T03:30:14.451Z,13.84
2023-01-13T03:32:44.176Z,13.98
2023-01-13T03:35:16.042Z,13.80
2023-01-13T03:37:46.030Z,14.38
2023-01-13T03:40:18.567Z,13.68
2023-01-13T03:43:08.706Z,14.15
2023-01-13T03:45:36.259Z,14.15
2023-01-13T03:48:05.267Z,13.80
2023-01-13T03:50:35.955Z,14.02
2023-01-13T03:53:02.645Z,14.50
2023-01-13T03:55:32.126Z,14.34
2023-01-13T03:58:06.727Z,14.55
2023-01-13T04:00:36.968Z,13.75
2023-01-13T04:03:15.229Z,13.49
2023-01-13T04:05:44.032Z,13.77
2023-01-13T04:08:27.554Z,13.54
2023-01-13T04:11:00.202Z,13.88
2023-01-13T04:13:29.244Z,13.57
2023-01-13T04:15:55.654Z,12.79
2023-01-13T04:18:24.231Z,13.36
2023-01-13T04:20:53.610Z,13.23
2023-01-13T04:23:21.076Z,13.63
2023-01-13T04:25:49.208Z,12.91
2023-01-13T04:28:16.528Z,13.36
2023-01-13T04:30:44.427Z,13.40
2023-01-13T04:33:11.487Z,12.51
2023-01-13T04:35:38.651Z,12.88
2023-01-13T04:38:06.996Z,13.35
2023-01-13T04:40:34.078Z,13.71
2023-01-13T04:43:00.850Z,13.23
2023-01-13T04:45:27.601Z,13.65
2023-01-13T04:47:55.432Z,13.05
2023-01-13T04:50:23.515Z,13.24
2023-01-13T04:52:51.407Z,13.23
2023-01-13T04:55:18.674Z,12.78
2023-01-13T04:57:53.797Z,13.02
2023-01-13T05:00:21.688Z,13.07
2023-01-13T05:02:51.995Z,12.68
2023-01-13T05:05:19.705Z,13.17
2023-01-13T05:07:47.031Z,13.20
2023-01-13T05:10:14.009Z,13.14
2023-01-13T05:13:00.261Z,12.51
2023-01-13T05:15:45.295Z,12.60
2023-01-13T05:18:12.479Z,12.78
2023-01-13T05:20:38.962Z,12.82
2023-01-13T05:23:24.189Z,12.81
2023-01-13T05:25:50.713Z,13.58
2023-01-13T05:28:17.607Z,13.32
2023-01-13T05:30:46.019Z,13.18
2023-01-13T05:33:14.504Z,13.39
2023-01-13T05:35:42.242Z,13.12
2023-01-13T05:38:09.528Z,12.90
2023-01-13T05:40:56.019Z,13.32
2023-01-13T05:43:25.015Z,12.87
2023-01-13T05:45:58.830Z,12.31
2023-01-13T05:48:27.046Z,12.98
2023-01-13T05:50:54.653Z,12.98
2023-01-13T05:53:23.550Z,13.27
2023-01-13T05:55:51.407Z,12.83
2023-01-13T05:58:20.003Z,12.56
2023-01-13T06:00:48.381Z,12.88
2023-01-13T06:03:19.507Z,11.63
2023-01-13T06:05:48.144Z,12.71
2023-01-13T06:08:15.112Z,12.57
2023-01-13T06:10:41.451Z,12.27
2023-01-13T06:13:08.777Z,12.82
2023-01-13T06:15:35.236Z,12.50
2023-01-13T06:18:02.321Z,12.10
2023-01-13T06:20:29.985Z,12.99
2023-01-13T06:22:56.744Z,13.12
2023-01-13T06:25:38.233Z,13.14
2023-01-13T06:28:04.950Z,13.06
2023-01-13T06:30:37.019Z,12.73
2023-01-13T06:33:05.762Z,12.56
2023-01-13T06:35:34.595Z,12.64
2023-01-13T06:38:03.690Z,12.55
2023-01-13T06:40:30.183Z,13.12
2023-01-13T06:43:17.050Z,12.82
2023-01-13T06:45:46.659Z,12.91
2023-01-13T06:48:13.418Z,12.20
2023-01-13T06:50:40.162Z,12.58
2023-01-13T06:53:07.096Z,12.99
2023-01-13T06:55:33.609Z,13.13
2023-01-13T06:58:00.366Z,12.25
2023-01-13T07:00:27.402Z,12.50
2023-01-13T07:02:54.749Z,12.74
2023-01-13T07:05:21.757Z,12.73
2023-01-13T07:07:48.564Z,12.32
2023-01-13T07:10:22.045Z,12.91
2023-01-13T07:13:07.684Z,13.16
2023-01-13T07:15:34.405Z,12.64
2023-01-13T07:18:01.816Z,12.77
2023-01-13T07:20:28.690Z,12.69
2023-01-13T07:22:55.725Z,12.82
2023-01-13T07:25:22.665Z,13.16
2023-01-13T07:27:49.871Z,13.01
2023-01-13T07:30:16.480Z,12.48
2023-01-13T07:32:42.976Z,12.78
2023-01-13T07:35:09.620Z,13.14
2023-01-13T07:37:36.749Z,13.10
2023-01-13T07:40:03.943Z,12.37
2023-01-13T07:42:49.001Z,12.60
2023-01-13T07:45:15.516Z,13.21
2023-01-13T07:47:41.972Z,12.58
2023-01-13T07:50:08.931Z,12.87
2023-01-13T07:52:35.280Z,12.83
2023-01-13T07:55:02.018Z,13.03
2023-01-13T07:57:28.870Z,13.01
2023-01-13T07:59:55.468Z,12.98
2023-01-13T08:02:22.452Z,13.07
2023-01-13T08:04:49.533Z,12.65
2023-01-13T08:07:16.334Z,12.86
2023-01-13T08:09:43.110Z,13.18
2023-01-13T08:12:28.197Z,12.74
2023-01-13T08:14:54.720Z,13.55
2023-01-13T08:17:21.131Z,13.46
2023-01-13T08:19:47.848Z,13.11
2023-01-13T08:22:14.493Z,13.29
2023-01-13T08:24:41.022Z,12.83
2023-01-13T08:27:07.540Z,13.52
2023-01-13T08:29:34.067Z,13.80
2023-01-13T08:32:00.694Z,12.99
2023-01-13T08:34:28.399Z,13.42
2023-01-13T08:36:54.876Z,13.06
2023-01-13T08:39:21.218Z,13.25
2023-01-13T08:41:56.995Z,13.30
2023-01-13T08:44:24.529Z,13.64
2023-01-13T08:46:50.933Z,13.48
2023-01-13T08:49:18.023Z,13.17
2023-01-13T08:51:45.375Z,14.05
2023-01-13T08:54:12.806Z,13.66
2023-01-13T08:56:41.009Z,13.93
2023-01-13T08:59:10.533Z,13.92
2023-01-13T09:01:39.495Z,13.70
2023-01-13T09:04:07.087Z,13.91
2023-01-13T09:06:33.973Z,13.53
2023-01-13T09:09:01.036Z,13.55
2023-01-13T09:11:51.122Z,13.63
2023-01-13T09:14:24.520Z,13.76
2023-01-13T09:16:51.404Z,13.18
2023-01-13T09:19:17.863Z,13.44
2023-01-13T09:21:44.433Z,13.71
2023-01-13T09:24:10.939Z,14.04
2023-01-13T09:26:38.029Z,13.44
2023-01-13T09:29:04.955Z,13.26
2023-01-13T09:31:34.645Z,12.84
2023-01-13T09:34:20.805Z,12.97
2023-01-13T09:36:47.509Z,13.49
2023-01-13T09:39:14.089Z,13.22
2023-01-13T09:42:01.576Z,12.93
2023-01-13T09:44:42.713Z,14.10
2023-01-13T09:47:15.949Z,13.31
2023-01-13T09:49:43.043Z,12.83
2023-01-13T09:52:27.077Z,13.63
2023-01-13T09:55:10.760Z,13.81
2023-01-13T09:57:38.027Z,13.51
2023-01-13T10:00:12.149Z,13.97
2023-01-13T10:02:57.454Z,13.01
2023-01-13T10:05:34.611Z,12.48
2023-01-13T10:08:13.231Z,12.91
2023-01-13T10:10:47.708Z,13.57
2023-01-13T10:13:20.143Z,13.54
2023-01-13T10:15:52.464Z,13.81
2023-01-13T10:18:24.017Z,13.83
2023-01-13T10:20:50.841Z,12.94
2023-01-13T10:23:29.209Z,13.40
2023-01-13T10:26:10.683Z,13.14
2023-01-13T10:28:37.060Z,13.47
2023-01-13T10:31:05.300Z,13.30
2023-01-13T10:33:31.864Z,13.46
2023-01-13T10:35:59.219Z,13.93
2023-01-13T10:38:31.667Z,13.87
2023-01-13T10:41:02.603Z,13.67
2023-01-13T10:43:29.880Z,13.44
2023-01-13T10:45:58.898Z,14.25
2023-01-13T10:48:45.606Z,13.80
2023-01-13T10:51:20.051Z,14.48
2023-01-13T10:53:56.158Z,13.68
2023-01-13T10:56:25.468Z,13.40
2023-01-13T10:58:52.333Z,13.78
2023-01-13T11:01:28.230Z,13.97
2023-01-13T11:03:55.575Z,14.20
2023-01-13T11:06:23.762Z,13.38
2023-01-13T11:08:51.278Z,13.74
2023-01-13T11:11:33.199Z,13.98
2023-01-13T11:14:20.921Z,13.31
2023-01-13T11:16:53.744Z,13.65
2023-01-13T11:19:23.025Z,12.96
2023-01-13T11:22:07.010Z,13.12
2023-01-13T11:24:40.428Z,13.18
2023-01-13T11:27:07.533Z,13.82
2023-01-13T11:29:45.462Z,13.95
2023-01-13T11:32:13.450Z,13.96
2023-01-13T11:34:41.806Z,13.43
2023-01-13T11:37:28.435Z,13.80
2023-01-13T11:40:01.512Z,13.62
2023-01-13T11:42:46.979Z,13.86
2023-01-13T11:45:29.364Z,13.34
2023-01-13T11:47:58.599Z,14.37
2023-01-13T11:50:34.192Z,14.01
2023-01-13T11:53:14.904Z,14.03
2023-01-13T11:55:49.978Z,13.63
2023-01-13T11:58:22.799Z,13.58
2023-01-13T12:00:58.063Z,13.88
2023-01-13T12:03:31.290Z,13.83
2023-01-13T12:05:59.670Z,13.35
2023-01-13T12:08:51.812Z,13.63
2023-01-13T12:11:58.867Z,13.45
2023-01-13T12:14:36.609Z,13.18
2023-01-13T12:17:08.517Z,13.25
2023-01-13T12:19:35.741Z,12.66
2023-01-13T12:22:11.873Z,13.10
2023-01-13T12:24:41.369Z,13.60
2023-01-13T12:27:26.547Z,13.81
2023-01-13T12:29:57.699Z,13.21
2023-01-13T12:32:27.905Z,13.10
2023-01-13T12:35:05.109Z,12.65
2023-01-13T12:37:45.007Z,12.86
2023-01-13T12:40:16.902Z,13.17
2023-01-13T12:43:17.685Z,13.54
2023-01-13T12:45:44.335Z,13.11
2023-01-13T12:48:29.614Z,13.12
2023-01-13T12:51:00.794Z,12.72
2023-01-13T12:53:33.021Z,12.63
2023-01-13T12:56:20.010Z,12.92
2023-01-13T12:58:46.423Z,12.96
2023-01-13T13:01:15.878Z,12.82
2023-01-13T13:04:02.494Z,12.32
2023-01-13T13:06:29.434Z,12.47
2023-01-13T13:09:13.819Z,13.50
2023-01-13T13:11:58.987Z,13.44
2023-01-13T13:14:37.512Z,12.17
2023-01-13T13:17:04.888Z,12.96
2023-01-13T13:19:31.210Z,13.44
2023-01-13T13:22:13.093Z,12.48
2023-01-13T13:24:40.385Z,12.75
2023-01-13T13:27:20.507Z,13.25
2023-01-13T13:29:52.730Z,13.32
2023-01-13T13:32:27.448Z,12.54
2023-01-13T13:34:54.220Z,12.78
2023-01-13T13:37:23.700Z,13.50
2023-01-13T13:40:09.172Z,12.97
2023-01-13T13:43:05.921Z,13.01
2023-01-13T13:45:51.128Z,13.11
2023-01-13T13:48:22.191Z,13.41
2023-01-13T13:50:51.029Z,12.89
2023-01-13T13:53:19.294Z,13.07
2023-01-13T13:56:02.798Z,12.97
2023-01-13T13:58:31.902Z,13.11
2023-01-13T14:00:59.053Z,13.11
2023-01-13T14:03:35.150Z,12.95
2023-01-13T14:06:04.277Z,12.77
2023-01-13T14:08:33.439Z,12.92
2023-01-13T14:11:00.547Z,13.58
2023-01-13T14:13:28.925Z,13.84
2023-01-13T14:16:02.836Z,12.85
2023-01-13T14:18:30.952Z,13.01
2023-01-13T14:21:04.902Z,13.25
2023-01-13T14:23:32.978Z,13.06
2023-01-13T14:26:03.957Z,12.88
2023-01-13T14:28:34.219Z,12.51
2023-01-13T14:31:01.462Z,12.81
2023-01-13T14:33:48.204Z,13.26
2023-01-13T14:36:16.526Z,12.87
2023-01-13T14:38:44.833Z,13.10
2023-01-13T14:41:15.723Z,12.64
2023-01-13T14:43:43.471Z,12.99
2023-01-13T14:46:10.377Z,12.83
2023-01-13T14:48:37.339Z,13.08
2023-01-13T14:51:05.965Z,13.30
2023-01-13T14:53:37.060Z,13.09
2023-01-13T14:56:22.454Z,12.47
2023-01-13T14:58:50.077Z,13.25
2023-01-13T15:01:30.003Z,12.82
2023-01-13T15:04:15.520Z,13.20
2023-01-13T15:06:46.482Z,12.36
2023-01-13T15:09:13.479Z,12.63
2023-01-13T15:11:40.653Z,12.86
2023-01-13T15:14:11.868Z,12.94
2023-01-13T15:16:38.689Z,13.51
2023-01-13T15:19:06.412Z,12.61
2023-01-13T15:21:34.631Z,12.78
2023-01-13T15:24:01.588Z,12.75
2023-01-13T15:26:30.384Z,12.96
2023-01-13T15:28:59.485Z,12.79
2023-01-13T15:31:28.501Z,12.07
2023-01-13T15:33:55.379Z,12.64
2023-01-13T15:36:24.124Z,12.74
2023-01-13T15:38:50.690Z,12.54
2023-01-13T15:41:19.002Z,12.66
2023-01-13T15:44:04.531Z,12.40
2023-01-13T15:46:39.882Z,12.43
2023-01-13T15:49:12.978Z,12.97
2023-01-13T15:51:40.189Z,13.06
2023-01-13T15:54:08.424Z,12.22
2023-01-13T15:56:36.369Z,12.19
2023-01-13T15:59:05.546Z,12.19
2023-01-13T16:01:32.206Z,12.44
2023-01-13T16:03:59.110Z,12.22
2023-01-13T16:06:29.773Z,12.50
2023-01-13T16:08:58.651Z,12.26
2023-01-13T16:11:26.029Z,12.68
2023-01-13T16:13:52.708Z,11.92
2023-01-13T16:16:25.276Z,11.94
2023-01-13T16:18:57.404Z,11.85
2023-01-13T16:21:42.227Z,12.54
2023-01-13T16:24:09.795Z,12.17
2023-01-13T16:26:37.795Z,12.11
2023-01-13T16:29:06.004Z,12.72
2023-01-13T16:31:54.174Z,12.16
2023-01-13T16:34:22.981Z,12.42
2023-01-13T16:36:58.399Z,12.61
2023-01-13T16:39:34.083Z,12.41
2023-01-13T16:42:02.896Z,12.24
2023-01-13T16:44:32.051Z,12.74
2023-01-13T16:47:02.701Z,12.38
2023-01-13T16:49:30.408Z,12.29
2023-01-13T16:51:59.241Z,11.66
2023-01-13T16:54:26.152Z,11.64
2023-01-13T16:56:53.239Z,12.01
2023-01-13T16:59:21.769Z,11.44
2023-01-13T17:01:49.080Z,11.76
2023-01-13T17:04:24.740Z,11.97
2023-01-13T17:06:57.621Z,11.59
2023-01-13T17:09:28.119Z,11.32
2023-01-13T17:11:59.315Z,11.54
2023-01-13T17:14:27.304Z,11.34
2023-01-13T17:16:56.987Z,12.33
2023-01-13T17:19:23.907Z,11.95
2023-01-13T17:21:53.231Z,11.92
2023-01-13T17:24:20.494Z,11.86
2023-01-13T17:26:49.205Z,12.64
2023-01-13T17:29:22.410Z,12.31
2023-01-13T17:31:52.556Z,12.33
2023-01-13T17:34:19.700Z,12.07
2023-01-13T17:36:48.347Z,12.31
2023-01-13T17:39:22.437Z,12.17
2023-01-13T17:41:49.641Z,11.70
2023-01-13T17:44:17.393Z,12.45
2023-01-13T17:46:44.014Z,12.20
2023-01-13T17:49:13.232Z,11.62
2023-01-13T17:51:41.331Z,11.84
2023-01-13T17:54:12.300Z,11.67
2023-01-13T17:56:41.302Z,12.42
2023-01-13T17:59:10.318Z,12.39
2023-01-13T18:01:37.715Z,12.24
2023-01-13T18:04:04.606Z,12.37
2023-01-13T18:06:34.685Z,11.90
2023-01-13T18:09:04.349Z,12.10
2023-01-13T18:11:31.140Z,12.12
2023-01-13T18:13:57.827Z,12.46
2023-01-13T18:16:25.597Z,12.30
2023-01-13T18:19:15.565Z,12.05
2023-01-13T18:22:03.369Z,12.17
2023-01-13T18:24:50.067Z,11.93
2023-01-13T18:27:22.659Z,12.74
2023-01-13T18:29:54.348Z,11.09
2023-01-13T18:32:21.518Z,11.53
2023-01-13T18:35:05.313Z,12.12
2023-01-13T18:37:35.621Z,12.59
2023-01-13T18:40:02.128Z,11.76
2023-01-13T18:42:47.286Z,11.80
2023-01-13T18:45:13.939Z,11.63
2023-01-13T18:47:42.450Z,11.76
2023-01-13T18:50:09.743Z,11.65
2023-01-13T18:52:38.303Z,12.01
2023-01-13T18:55:04.951Z,11.84
2023-01-13T18:57:31.510Z,12.79
2023-01-13T19:00:12.491Z,11.85
2023-01-13T19:02:39.031Z,12.19
2023-01-13T19:05:05.972Z,12.05
2023-01-13T19:07:35.608Z,12.19
2023-01-13T19:10:04.508Z,11.62
2023-01-13T19:12:32.105Z,12.01
2023-01-13T19:15:00.401Z,11.36
2023-01-13T19:17:28.819Z,11.46
2023-01-13T19:19:56.103Z,11.87
2023-01-13T19:22:27.414Z,12.01
2023-01-13T19:24:54.568Z,11.48
2023-01-13T19:27:22.260Z,11.56
2023-01-13T19:29:52.335Z,12.11
2023-01-13T19:32:21.918Z,11.67
2023-01-13T19:34:50.781Z,11.89
2023-01-13T19:37:17.892Z,11.69
2023-01-13T19:39:44.736Z,12.35
2023-01-13T19:42:31.340Z,11.79
2023-01-13T19:45:17.252Z,12.03
2023-01-13T19:47:45.493Z,11.57
2023-01-13T19:50:12.671Z,12.68
2023-01-13T19:52:39.411Z,12.12
2023-01-13T19:55:06.498Z,11.86
2023-01-13T19:57:33.313Z,12.44
2023-01-13T20:00:00.156Z,12.14
2023-01-13T20:02:32.024Z,12.09
2023-01-13T20:05:00.225Z,12.74
2023-01-13T20:07:28.091Z,11.86
2023-01-13T20:09:59.518Z,11.80
2023-01-13T20:12:26.526Z,12.34
2023-01-13T20:14:53.616Z,11.87
2023-01-13T20:17:21.118Z,12.47
2023-01-13T20:19:48.261Z,12.51
2023-01-13T20:22:15.488Z,11.51
2023-01-13T20:24:42.397Z,12.49
2023-01-13T20:27:09.462Z,12.48
2023-01-13T20:29:36.092Z,12.30
2023-01-13T20:32:03.467Z,12.74
2023-01-13T20:34:29.982Z,12.05
2023-01-13T20:36:56.642Z,11.52
2023-01-13T20:39:27.540Z,12.59
2023-01-13T20:42:28.071Z,12.44
2023-01-13T20:44:54.656Z,12.09
2023-01-13T20:47:21.602Z,12.26
2023-01-13T20:49:48.830Z,12.01
2023-01-13T20:52:30.576Z,11.61
2023-01-13T20:54:57.536Z,12.25
2023-01-13T20:57:26.692Z,12.45
2023-01-13T20:59:53.015Z,12.24
2023-01-13T21:02:24.356Z,12.41
2023-01-13T21:04:51.290Z,11.84
2023-01-13T21:07:18.569Z,12.43
2023-01-13T21:09:45.465Z,12.45
2023-01-13T21:12:34.227Z,11.92
2023-01-13T21:15:19.645Z,12.13
2023-01-13T21:18:05.218Z,12.00
2023-01-13T21:20:35.773Z,12.07
2023-01-13T21:23:03.186Z,11.76
2023-01-13T21:25:30.334Z,12.01
2023-01-13T21:28:09.219Z,12.49
2023-01-13T21:30:36.949Z,11.28
2023-01-13T21:33:06.588Z,12.23
2023-01-13T21:35:33.536Z,11.58
2023-01-13T21:38:00.247Z,12.62
2023-01-13T21:40:27.051Z,12.12
2023-01-13T21:43:12.348Z,11.38
2023-01-13T21:46:05.619Z,11.60
2023-01-13T21:48:32.897Z,11.94
2023-01-13T21:51:02.049Z,12.20
2023-01-13T21:53:32.597Z,12.45
2023-01-13T21:56:00.182Z,11.69
2023-01-13T21:58:26.737Z,12.14
2023-01-13T22:00:59.266Z,12.08
2023-01-13T22:03:32.792Z,11.69
2023-01-13T22:06:00.143Z,12.42
2023-01-13T22:08:27.651Z,12.88
2023-01-13T22:10:58.235Z,12.39
2023-01-13T22:13:43.702Z,11.99
2023-01-13T22:16:12.632Z,12.18
2023-01-13T22:18:39.243Z,12.37
2023-01-13T22:21:07.430Z,12.44
2023-01-13T22:23:35.666Z,12.47
2023-01-13T22:26:06.469Z,12.49
2023-01-13T22:28:44.158Z,12.83
2023-01-13T22:31:15.332Z,11.72
2023-01-13T22:33:42.498Z,12.64
2023-01-13T22:36:10.524Z,12.74
2023-01-13T22:38:38.155Z,12.02
2023-01-13T22:41:06.876Z,12.53
2023-01-13T22:43:33.934Z,13.14
2023-01-13T22:46:02.058Z,12.11
2023-01-13T22:48:28.800Z,12.41
2023-01-13T22:50:56.220Z,12.96
2023-01-13T22:53:23.441Z,12.74
2023-01-13T22:55:54.069Z,11.73
2023-01-13T22:58:21.727Z,11.99
2023-01-13T23:00:49.579Z,12.48
2023-01-13T23:03:16.442Z,13.17
2023-01-13T23:05:46.259Z,11.92
2023-01-13T23:08:13.850Z,12.83
2023-01-13T23:10:42.302Z,12.33
2023-01-13T23:13:13.206Z,11.69
2023-01-13T23:15:40.710Z,12.19
2023-01-13T23:18:09.963Z,12.57
2023-01-13T23:20:37.265Z,12.47
2023-01-13T23:23:06.259Z,12.62
2023-01-13T23:25:34.075Z,12.49
2023-01-13T23:28:02.070Z,12.17
2023-01-13T23:30:29.056Z,12.56
2023-01-13T23:32:58.351Z,12.25
2023-01-13T23:35:25.156Z,12.17
2023-01-13T23:37:51.971Z,12.60
2023-01-13T23:40:19.384Z,12.82
2023-01-13T23:42:47.340Z,12.72
2023-01-13T23:45:14.207Z,12.61
2023-01-13T23:47:41.324Z,12.60
2023-01-13T23:50:08.516Z,13.14
2023-01-13T23:52:36.016Z,11.66
2023-01-13T23:55:02.672Z,12.44
2023-01-13T23:57:31.492Z,12.60
2023-01-13T23:59:58.220Z,12.40
